sensor_id;sensor_type;location;lat;lon;timestamp;temperature;humidity
25450;DHT22;13371;52.080;5.624;2023-12-07T00:01:43;4.40;99.90
25450;DHT22;13371;52.080;5.624;2023-12-07T00:04:09;4.20;99.90
25450;DHT22;13371;52.080;5.624;2023-12-07T00:06:34;4.10;99.90
25450;DHT22;13371;52.080;5.624;2023-12-07T00:09:00;4.10;99.90
25450;DHT22;13371;52.080;5.624;2023-12-07T00:11:26;3.80;99.90
25450;DHT22;13371;52.080;5.624;2023-12-07T00:13:52;3.90;99.90
25450;DHT22;13371;52.080;5.624;2023-12-07T00:16:17;3.90;99.90
25450;DHT22;13371;52.080;5.624;2023-12-07T00:18:43;3.90;99.90
25450;DHT22;13371;52.080;5.624;2023-12-07T00:21:09;4.00;99.90
25450;DHT22;13371;52.080;5.624;2023-12-07T00:23:34;4.10;99.90
25450;DHT22;13371;52.080;5.624;2023-12-07T00:26:00;4.30;99.90
25450;DHT22;13371;52.080;5.624;2023-12-07T00:28:25;4.20;99.90
25450;DHT22;13371;52.080;5.624;2023-12-07T00:30:51;3.80;99.90
25450;DHT22;13371;52.080;5.624;2023-12-07T00:33:17;3.60;99.90
25450;DHT22;13371;52.080;5.624;2023-12-07T00:35:43;3.80;99.90
25450;DHT22;13371;52.080;5.624;2023-12-07T00:38:08;3.60;99.90
25450;DHT22;13371;52.080;5.624;2023-12-07T00:40:34;3.80;99.90
25450;DHT22;13371;52.080;5.624;2023-12-07T00:43:02;3.60;99.90
25450;DHT22;13371;52.080;5.624;2023-12-07T00:45:28;3.40;99.90
25450;DHT22;13371;52.080;5.624;2023-12-07T00:47:54;3.70;99.90
25450;DHT22;13371;52.080;5.624;2023-12-07T00:50:19;3.80;99.90
25450;DHT22;13371;52.080;5.624;2023-12-07T00:52:45;3.80;99.90
25450;DHT22;13371;52.080;5.624;2023-12-07T00:55:11;3.80;99.90
25450;DHT22;13371;52.080;5.624;2023-12-07T00:57:36;3.80;99.90
25450;DHT22;13371;52.080;5.624;2023-12-07T01:00:02;3.80;99.90
25450;DHT22;13371;52.080;5.624;2023-12-07T01:02:28;3.80;99.90
25450;DHT22;13371;52.080;5.624;2023-12-07T01:04:54;3.80;99.90
25450;DHT22;13371;52.080;5.624;2023-12-07T01:07:20;3.70;99.90
25450;DHT22;13371;52.080;5.624;2023-12-07T01:09:46;3.70;99.90
25450;DHT22;13371;52.080;5.624;2023-12-07T01:12:12;3.80;99.90
25450;DHT22;13371;52.080;5.624;2023-12-07T01:14:37;3.90;99.90
25450;DHT22;13371;52.080;5.624;2023-12-07T01:17:03;3.90;99.90
25450;DHT22;13371;52.080;5.624;2023-12-07T01:19:29;3.90;99.90
25450;DHT22;13371;52.080;5.624;2023-12-07T01:21:54;4.00;99.90
25450;DHT22;13371;52.080;5.624;2023-12-07T01:24:20;4.00;99.90
25450;DHT22;13371;52.080;5.624;2023-12-07T01:26:45;3.90;99.90
25450;DHT22;13371;52.080;5.624;2023-12-07T01:29:11;3.90;99.90
25450;DHT22;13371;52.080;5.624;2023-12-07T01:31:39;4.00;99.90
25450;DHT22;13371;52.080;5.624;2023-12-07T01:34:05;4.00;99.90
25450;DHT22;13371;52.080;5.624;2023-12-07T01:36:30;4.00;99.90
25450;DHT22;13371;52.080;5.624;2023-12-07T01:38:56;4.00;99.90
25450;DHT22;13371;52.080;5.624;2023-12-07T01:41:22;3.80;99.90
25450;DHT22;13371;52.080;5.624;2023-12-07T01:43:47;3.90;99.90
25450;DHT22;13371;52.080;5.624;2023-12-07T01:46:14;3.90;99.90
25450;DHT22;13371;52.080;5.624;2023-12-07T01:48:40;3.90;99.90
25450;DHT22;13371;52.080;5.624;2023-12-07T01:51:06;3.90;99.90
25450;DHT22;13371;52.080;5.624;2023-12-07T01:53:32;4.00;99.90
25450;DHT22;13371;52.080;5.624;2023-12-07T01:55:59;4.00;99.90
25450;DHT22;13371;52.080;5.624;2023-12-07T01:58:25;3.90;99.90
25450;DHT22;13371;52.080;5.624;2023-12-07T02:00:50;3.90;99.90
25450;DHT22;13371;52.080;5.624;2023-12-07T02:03:17;3.70;99.90
25450;DHT22;13371;52.080;5.624;2023-12-07T02:05:48;3.80;99.90
25450;DHT22;13371;52.080;5.624;2023-12-07T02:08:14;3.70;99.90
25450;DHT22;13371;52.080;5.624;2023-12-07T02:10:40;3.90;99.90
25450;DHT22;13371;52.080;5.624;2023-12-07T02:13:06;3.70;99.90
25450;DHT22;13371;52.080;5.624;2023-12-07T02:15:32;3.70;99.90
25450;DHT22;13371;52.080;5.624;2023-12-07T02:18:10;3.60;99.90
25450;DHT22;13371;52.080;5.624;2023-12-07T02:20:45;3.70;99.90
25450;DHT22;13371;52.080;5.624;2023-12-07T02:23:15;3.60;99.90
25450;DHT22;13371;52.080;5.624;2023-12-07T02:25:51;3.40;99.90
25450;DHT22;13371;52.080;5.624;2023-12-07T02:28:16;3.50;99.90
25450;DHT22;13371;52.080;5.624;2023-12-07T02:30:42;3.40;99.90
25450;DHT22;13371;52.080;5.624;2023-12-07T02:33:08;3.60;99.90
25450;DHT22;13371;52.080;5.624;2023-12-07T02:35:35;3.50;99.90
25450;DHT22;13371;52.080;5.624;2023-12-07T02:38:01;3.20;99.90
25450;DHT22;13371;52.080;5.624;2023-12-07T02:40:28;3.60;99.90
25450;DHT22;13371;52.080;5.624;2023-12-07T02:42:54;3.70;99.90
25450;DHT22;13371;52.080;5.624;2023-12-07T02:45:20;3.70;99.90
25450;DHT22;13371;52.080;5.624;2023-12-07T02:47:46;3.70;99.90
25450;DHT22;13371;52.080;5.624;2023-12-07T02:50:12;3.70;99.90
25450;DHT22;13371;52.080;5.624;2023-12-07T02:52:38;3.80;99.90
25450;DHT22;13371;52.080;5.624;2023-12-07T02:55:05;3.90;99.90
25450;DHT22;13371;52.080;5.624;2023-12-07T02:57:30;3.70;99.90
25450;DHT22;13371;52.080;5.624;2023-12-07T02:59:56;3.50;99.90
25450;DHT22;13371;52.080;5.624;2023-12-07T03:02:22;3.40;99.90
25450;DHT22;13371;52.080;5.624;2023-12-07T03:04:47;3.60;99.90
25450;DHT22;13371;52.080;5.624;2023-12-07T03:07:13;3.70;99.90
25450;DHT22;13371;52.080;5.624;2023-12-07T03:09:39;3.70;99.90
25450;DHT22;13371;52.080;5.624;2023-12-07T03:12:05;3.90;99.90
25450;DHT22;13371;52.080;5.624;2023-12-07T03:14:30;3.90;99.90
25450;DHT22;13371;52.080;5.624;2023-12-07T03:16:56;3.60;99.90
25450;DHT22;13371;52.080;5.624;2023-12-07T03:19:21;3.60;99.90
25450;DHT22;13371;52.080;5.624;2023-12-07T03:21:47;3.70;99.90
25450;DHT22;13371;52.080;5.624;2023-12-07T03:24:12;3.50;99.90
25450;DHT22;13371;52.080;5.624;2023-12-07T03:26:38;3.60;99.90
25450;DHT22;13371;52.080;5.624;2023-12-07T03:29:04;3.60;99.90
25450;DHT22;13371;52.080;5.624;2023-12-07T03:31:30;3.80;99.90
25450;DHT22;13371;52.080;5.624;2023-12-07T03:33:56;3.80;99.90
25450;DHT22;13371;52.080;5.624;2023-12-07T03:36:22;3.50;99.90
25450;DHT22;13371;52.080;5.624;2023-12-07T03:38:48;3.60;99.90
25450;DHT22;13371;52.080;5.624;2023-12-07T03:41:13;3.60;99.90
25450;DHT22;13371;52.080;5.624;2023-12-07T03:43:39;3.70;99.90
25450;DHT22;13371;52.080;5.624;2023-12-07T03:46:05;3.90;99.90
25450;DHT22;13371;52.080;5.624;2023-12-07T03:48:32;3.80;99.90
25450;DHT22;13371;52.080;5.624;2023-12-07T03:50:57;3.60;99.90
25450;DHT22;13371;52.080;5.624;2023-12-07T03:53:23;2.90;99.90
25450;DHT22;13371;52.080;5.624;2023-12-07T03:55:49;3.10;99.90
25450;DHT22;13371;52.080;5.624;2023-12-07T03:58:14;3.50;99.90
25450;DHT22;13371;52.080;5.624;2023-12-07T04:00:40;3.70;99.90
25450;DHT22;13371;52.080;5.624;2023-12-07T04:03:05;3.60;99.90
25450;DHT22;13371;52.080;5.624;2023-12-07T04:05:31;3.30;99.90
25450;DHT22;13371;52.080;5.624;2023-12-07T04:07:57;3.40;99.90
25450;DHT22;13371;52.080;5.624;2023-12-07T04:10:23;3.50;99.90
25450;DHT22;13371;52.080;5.624;2023-12-07T04:12:49;3.60;99.90
25450;DHT22;13371;52.080;5.624;2023-12-07T04:15:14;3.60;99.90
25450;DHT22;13371;52.080;5.624;2023-12-07T04:17:40;3.40;99.90
25450;DHT22;13371;52.080;5.624;2023-12-07T04:20:06;3.60;99.90
25450;DHT22;13371;52.080;5.624;2023-12-07T04:22:33;3.60;99.90
25450;DHT22;13371;52.080;5.624;2023-12-07T04:24:58;3.50;99.90
25450;DHT22;13371;52.080;5.624;2023-12-07T04:27:24;3.50;99.90
25450;DHT22;13371;52.080;5.624;2023-12-07T04:29:49;3.50;99.90
25450;DHT22;13371;52.080;5.624;2023-12-07T04:32:15;3.60;99.90
25450;DHT22;13371;52.080;5.624;2023-12-07T04:34:40;3.40;99.90
25450;DHT22;13371;52.080;5.624;2023-12-07T04:37:06;3.10;99.90
25450;DHT22;13371;52.080;5.624;2023-12-07T04:39:32;3.10;99.90
25450;DHT22;13371;52.080;5.624;2023-12-07T04:41:57;3.30;99.90
25450;DHT22;13371;52.080;5.624;2023-12-07T04:44:23;3.10;99.90
25450;DHT22;13371;52.080;5.624;2023-12-07T04:46:51;3.00;99.90
25450;DHT22;13371;52.080;5.624;2023-12-07T04:49:17;3.20;99.90
25450;DHT22;13371;52.080;5.624;2023-12-07T04:51:43;3.20;99.90
25450;DHT22;13371;52.080;5.624;2023-12-07T04:54:14;3.20;99.90
25450;DHT22;13371;52.080;5.624;2023-12-07T04:56:41;3.30;99.90
25450;DHT22;13371;52.080;5.624;2023-12-07T04:59:07;2.90;99.90
25450;DHT22;13371;52.080;5.624;2023-12-07T05:01:34;2.70;99.90
25450;DHT22;13371;52.080;5.624;2023-12-07T05:04:01;2.40;99.90
25450;DHT22;13371;52.080;5.624;2023-12-07T05:06:27;2.70;99.90
25450;DHT22;13371;52.080;5.624;2023-12-07T05:08:53;3.20;99.90
25450;DHT22;13371;52.080;5.624;2023-12-07T05:11:18;2.80;99.90
25450;DHT22;13371;52.080;5.624;2023-12-07T05:13:44;2.90;99.90
25450;DHT22;13371;52.080;5.624;2023-12-07T05:16:10;3.00;99.90
25450;DHT22;13371;52.080;5.624;2023-12-07T05:18:35;2.90;99.90
25450;DHT22;13371;52.080;5.624;2023-12-07T05:21:01;3.00;99.90
25450;DHT22;13371;52.080;5.624;2023-12-07T05:23:27;2.70;99.90
25450;DHT22;13371;52.080;5.624;2023-12-07T05:25:52;2.90;99.90
25450;DHT22;13371;52.080;5.624;2023-12-07T05:28:19;2.70;99.90
25450;DHT22;13371;52.080;5.624;2023-12-07T05:30:45;2.50;99.90
25450;DHT22;13371;52.080;5.624;2023-12-07T05:33:11;2.70;99.90
25450;DHT22;13371;52.080;5.624;2023-12-07T05:35:37;2.90;99.90
25450;DHT22;13371;52.080;5.624;2023-12-07T05:38:02;2.70;99.90
25450;DHT22;13371;52.080;5.624;2023-12-07T05:40:28;2.70;99.90
25450;DHT22;13371;52.080;5.624;2023-12-07T05:42:54;2.40;99.90
25450;DHT22;13371;52.080;5.624;2023-12-07T05:45:20;2.20;99.90
25450;DHT22;13371;52.080;5.624;2023-12-07T05:47:46;2.40;99.90
25450;DHT22;13371;52.080;5.624;2023-12-07T05:50:11;2.10;99.90
25450;DHT22;13371;52.080;5.624;2023-12-07T05:52:37;2.40;99.90
25450;DHT22;13371;52.080;5.624;2023-12-07T05:55:03;2.70;99.90
25450;DHT22;13371;52.080;5.624;2023-12-07T05:57:30;2.60;99.90
25450;DHT22;13371;52.080;5.624;2023-12-07T05:59:56;2.60;99.90
25450;DHT22;13371;52.080;5.624;2023-12-07T06:02:22;2.40;99.90
25450;DHT22;13371;52.080;5.624;2023-12-07T06:04:47;2.50;99.90
25450;DHT22;13371;52.080;5.624;2023-12-07T06:07:13;2.70;99.90
25450;DHT22;13371;52.080;5.624;2023-12-07T06:09:38;2.90;99.90
25450;DHT22;13371;52.080;5.624;2023-12-07T06:12:04;2.90;99.90
25450;DHT22;13371;52.080;5.624;2023-12-07T06:14:29;2.70;99.90
25450;DHT22;13371;52.080;5.624;2023-12-07T06:16:55;2.80;99.90
25450;DHT22;13371;52.080;5.624;2023-12-07T06:19:20;2.60;99.90
25450;DHT22;13371;52.080;5.624;2023-12-07T06:21:46;2.80;99.90
25450;DHT22;13371;52.080;5.624;2023-12-07T06:24:12;2.70;99.90
25450;DHT22;13371;52.080;5.624;2023-12-07T06:26:39;2.40;99.90
25450;DHT22;13371;52.080;5.624;2023-12-07T06:29:05;2.60;99.90
25450;DHT22;13371;52.080;5.624;2023-12-07T06:31:33;2.70;99.90
25450;DHT22;13371;52.080;5.624;2023-12-07T06:33:59;3.00;99.90
25450;DHT22;13371;52.080;5.624;2023-12-07T06:36:26;2.90;99.90
25450;DHT22;13371;52.080;5.624;2023-12-07T06:38:52;3.00;99.90
25450;DHT22;13371;52.080;5.624;2023-12-07T06:41:20;2.90;99.90
25450;DHT22;13371;52.080;5.624;2023-12-07T06:43:46;2.60;99.90
25450;DHT22;13371;52.080;5.624;2023-12-07T06:46:14;2.20;99.90
25450;DHT22;13371;52.080;5.624;2023-12-07T06:48:41;2.30;99.90
25450;DHT22;13371;52.080;5.624;2023-12-07T06:51:07;2.30;99.90
25450;DHT22;13371;52.080;5.624;2023-12-07T06:53:33;2.30;99.90
25450;DHT22;13371;52.080;5.624;2023-12-07T06:55:58;2.20;99.90
25450;DHT22;13371;52.080;5.624;2023-12-07T06:58:24;2.10;99.90
25450;DHT22;13371;52.080;5.624;2023-12-07T07:00:50;2.10;99.90
25450;DHT22;13371;52.080;5.624;2023-12-07T07:03:16;2.10;99.90
25450;DHT22;13371;52.080;5.624;2023-12-07T07:05:42;2.30;99.90
25450;DHT22;13371;52.080;5.624;2023-12-07T07:08:07;2.10;99.90
25450;DHT22;13371;52.080;5.624;2023-12-07T07:10:34;2.40;99.90
25450;DHT22;13371;52.080;5.624;2023-12-07T07:13:03;2.60;99.90
25450;DHT22;13371;52.080;5.624;2023-12-07T07:15:33;2.60;99.90
25450;DHT22;13371;52.080;5.624;2023-12-07T07:17:59;2.80;99.90
25450;DHT22;13371;52.080;5.624;2023-12-07T07:20:25;2.60;99.90
25450;DHT22;13371;52.080;5.624;2023-12-07T07:22:51;2.40;99.90
25450;DHT22;13371;52.080;5.624;2023-12-07T07:25:16;2.40;99.90
25450;DHT22;13371;52.080;5.624;2023-12-07T07:27:45;2.50;99.90
25450;DHT22;13371;52.080;5.624;2023-12-07T07:30:11;2.70;99.90
25450;DHT22;13371;52.080;5.624;2023-12-07T07:32:37;2.40;99.90
25450;DHT22;13371;52.080;5.624;2023-12-07T07:35:02;2.70;99.90
25450;DHT22;13371;52.080;5.624;2023-12-07T07:37:28;2.60;99.90
25450;DHT22;13371;52.080;5.624;2023-12-07T07:39:54;2.90;99.90
25450;DHT22;13371;52.080;5.624;2023-12-07T07:42:19;2.80;99.90
25450;DHT22;13371;52.080;5.624;2023-12-07T07:44:45;2.10;99.90
25450;DHT22;13371;52.080;5.624;2023-12-07T07:47:10;2.10;99.90
25450;DHT22;13371;52.080;5.624;2023-12-07T07:49:36;2.20;99.90
25450;DHT22;13371;52.080;5.624;2023-12-07T07:52:02;2.10;99.90
25450;DHT22;13371;52.080;5.624;2023-12-07T07:54:28;1.90;99.90
25450;DHT22;13371;52.080;5.624;2023-12-07T07:56:53;2.00;99.90
25450;DHT22;13371;52.080;5.624;2023-12-07T07:59:19;1.90;99.90
25450;DHT22;13371;52.080;5.624;2023-12-07T08:01:45;1.80;99.90
25450;DHT22;13371;52.080;5.624;2023-12-07T08:04:12;2.00;99.90
25450;DHT22;13371;52.080;5.624;2023-12-07T08:06:38;2.00;99.90
25450;DHT22;13371;52.080;5.624;2023-12-07T08:09:03;1.90;99.90
25450;DHT22;13371;52.080;5.624;2023-12-07T08:11:29;2.10;99.90
25450;DHT22;13371;52.080;5.624;2023-12-07T08:13:54;2.30;99.90
25450;DHT22;13371;52.080;5.624;2023-12-07T08:16:20;1.90;99.90
25450;DHT22;13371;52.080;5.624;2023-12-07T08:18:45;1.50;99.90
25450;DHT22;13371;52.080;5.624;2023-12-07T08:21:21;1.40;99.90
25450;DHT22;13371;52.080;5.624;2023-12-07T08:23:47;1.70;99.90
25450;DHT22;13371;52.080;5.624;2023-12-07T08:26:14;1.60;99.90
25450;DHT22;13371;52.080;5.624;2023-12-07T08:28:40;1.80;99.90
25450;DHT22;13371;52.080;5.624;2023-12-07T08:31:06;1.90;99.90
25450;DHT22;13371;52.080;5.624;2023-12-07T08:33:32;1.90;99.90
25450;DHT22;13371;52.080;5.624;2023-12-07T08:36:00;2.20;99.90
25450;DHT22;13371;52.080;5.624;2023-12-07T08:38:25;1.90;99.90
25450;DHT22;13371;52.080;5.624;2023-12-07T08:40:51;2.10;99.90
25450;DHT22;13371;52.080;5.624;2023-12-07T08:43:18;2.20;99.90
25450;DHT22;13371;52.080;5.624;2023-12-07T08:45:44;2.40;99.90
25450;DHT22;13371;52.080;5.624;2023-12-07T08:48:09;2.30;99.90
25450;DHT22;13371;52.080;5.624;2023-12-07T08:50:35;2.00;99.90
25450;DHT22;13371;52.080;5.624;2023-12-07T08:53:00;2.00;99.90
25450;DHT22;13371;52.080;5.624;2023-12-07T08:55:26;2.10;99.90
25450;DHT22;13371;52.080;5.624;2023-12-07T08:57:53;2.30;99.90
25450;DHT22;13371;52.080;5.624;2023-12-07T09:00:19;2.40;99.90
25450;DHT22;13371;52.080;5.624;2023-12-07T09:02:50;2.40;99.90
25450;DHT22;13371;52.080;5.624;2023-12-07T09:05:17;2.40;99.90
25450;DHT22;13371;52.080;5.624;2023-12-07T09:07:43;1.90;99.90
25450;DHT22;13371;52.080;5.624;2023-12-07T09:10:09;1.90;99.90
25450;DHT22;13371;52.080;5.624;2023-12-07T09:12:34;1.90;99.90
25450;DHT22;13371;52.080;5.624;2023-12-07T09:15:02;2.20;99.90
25450;DHT22;13371;52.080;5.624;2023-12-07T09:17:27;2.30;99.90
25450;DHT22;13371;52.080;5.624;2023-12-07T09:19:53;2.20;99.90
25450;DHT22;13371;52.080;5.624;2023-12-07T09:22:19;2.50;99.90
25450;DHT22;13371;52.080;5.624;2023-12-07T09:24:45;2.20;99.90
25450;DHT22;13371;52.080;5.624;2023-12-07T09:27:13;2.10;99.90
25450;DHT22;13371;52.080;5.624;2023-12-07T09:29:38;1.60;99.90
25450;DHT22;13371;52.080;5.624;2023-12-07T09:32:04;1.30;99.90
25450;DHT22;13371;52.080;5.624;2023-12-07T09:34:30;1.00;99.90
25450;DHT22;13371;52.080;5.624;2023-12-07T09:37:08;1.10;99.90
25450;DHT22;13371;52.080;5.624;2023-12-07T09:39:34;1.50;99.90
25450;DHT22;13371;52.080;5.624;2023-12-07T09:42:00;1.70;99.90
25450;DHT22;13371;52.080;5.624;2023-12-07T09:44:26;1.70;99.90
25450;DHT22;13371;52.080;5.624;2023-12-07T09:46:52;1.70;99.90
25450;DHT22;13371;52.080;5.624;2023-12-07T09:49:18;2.00;99.90
25450;DHT22;13371;52.080;5.624;2023-12-07T09:51:45;2.10;99.90
25450;DHT22;13371;52.080;5.624;2023-12-07T09:54:12;2.10;99.90
25450;DHT22;13371;52.080;5.624;2023-12-07T09:56:37;1.80;99.90
25450;DHT22;13371;52.080;5.624;2023-12-07T09:59:04;1.80;99.90
25450;DHT22;13371;52.080;5.624;2023-12-07T10:01:30;2.00;99.90
25450;DHT22;13371;52.080;5.624;2023-12-07T10:04:21;1.80;99.90
25450;DHT22;13371;52.080;5.624;2023-12-07T10:06:52;2.00;99.90
25450;DHT22;13371;52.080;5.624;2023-12-07T10:09:19;2.20;99.90
25450;DHT22;13371;52.080;5.624;2023-12-07T10:11:46;1.90;99.90
25450;DHT22;13371;52.080;5.624;2023-12-07T10:14:12;1.80;99.90
25450;DHT22;13371;52.080;5.624;2023-12-07T10:16:38;1.80;99.90
25450;DHT22;13371;52.080;5.624;2023-12-07T10:19:14;2.10;99.90
25450;DHT22;13371;52.080;5.624;2023-12-07T10:21:43;2.50;99.90
25450;DHT22;13371;52.080;5.624;2023-12-07T10:24:09;2.10;99.90
25450;DHT22;13371;52.080;5.624;2023-12-07T10:26:35;2.30;99.90
25450;DHT22;13371;52.080;5.624;2023-12-07T10:29:04;2.20;99.90
25450;DHT22;13371;52.080;5.624;2023-12-07T10:31:29;2.20;99.90
25450;DHT22;13371;52.080;5.624;2023-12-07T10:33:56;1.80;99.90
25450;DHT22;13371;52.080;5.624;2023-12-07T10:36:22;1.60;99.90
25450;DHT22;13371;52.080;5.624;2023-12-07T10:38:47;1.50;99.90
25450;DHT22;13371;52.080;5.624;2023-12-07T10:41:16;1.60;99.90
25450;DHT22;13371;52.080;5.624;2023-12-07T10:43:44;1.70;99.90
25450;DHT22;13371;52.080;5.624;2023-12-07T10:46:15;1.50;99.90
25450;DHT22;13371;52.080;5.624;2023-12-07T10:48:44;1.90;99.90
25450;DHT22;13371;52.080;5.624;2023-12-07T10:51:29;1.90;99.90
25450;DHT22;13371;52.080;5.624;2023-12-07T10:53:57;2.10;99.90
25450;DHT22;13371;52.080;5.624;2023-12-07T10:56:39;2.00;99.90
25450;DHT22;13371;52.080;5.624;2023-12-07T10:59:07;1.70;99.90
25450;DHT22;13371;52.080;5.624;2023-12-07T11:01:34;1.70;99.90
25450;DHT22;13371;52.080;5.624;2023-12-07T11:04:01;2.20;99.90
25450;DHT22;13371;52.080;5.624;2023-12-07T11:06:27;2.20;99.90
25450;DHT22;13371;52.080;5.624;2023-12-07T11:08:58;2.10;99.90
25450;DHT22;13371;52.080;5.624;2023-12-07T11:11:41;2.10;99.90
25450;DHT22;13371;52.080;5.624;2023-12-07T11:14:09;2.40;99.90
25450;DHT22;13371;52.080;5.624;2023-12-07T11:16:40;2.20;99.90
25450;DHT22;13371;52.080;5.624;2023-12-07T11:21:58;2.10;99.90
25450;DHT22;13371;52.080;5.624;2023-12-07T11:24:24;2.50;99.90
25450;DHT22;13371;52.080;5.624;2023-12-07T11:26:57;2.80;99.90
25450;DHT22;13371;52.080;5.624;2023-12-07T11:29:28;2.90;99.90
25450;DHT22;13371;52.080;5.624;2023-12-07T11:32:02;2.90;99.90
25450;DHT22;13371;52.080;5.624;2023-12-07T11:34:42;2.80;99.90
25450;DHT22;13371;52.080;5.624;2023-12-07T11:37:09;2.90;99.90
25450;DHT22;13371;52.080;5.624;2023-12-07T11:39:42;2.90;99.90
25450;DHT22;13371;52.080;5.624;2023-12-07T11:42:19;2.80;99.90
25450;DHT22;13371;52.080;5.624;2023-12-07T11:44:47;2.90;99.90
25450;DHT22;13371;52.080;5.624;2023-12-07T11:47:20;3.10;99.90
25450;DHT22;13371;52.080;5.624;2023-12-07T11:49:46;3.00;99.90
25450;DHT22;13371;52.080;5.624;2023-12-07T11:52:17;2.90;99.90
25450;DHT22;13371;52.080;5.624;2023-12-07T11:54:47;2.60;99.90
25450;DHT22;13371;52.080;5.624;2023-12-07T11:57:17;2.60;99.90
25450;DHT22;13371;52.080;5.624;2023-12-07T11:59:46;2.80;99.90
25450;DHT22;13371;52.080;5.624;2023-12-07T12:02:13;3.10;99.90
25450;DHT22;13371;52.080;5.624;2023-12-07T12:04:40;3.00;99.90
25450;DHT22;13371;52.080;5.624;2023-12-07T12:07:06;3.00;99.90
25450;DHT22;13371;52.080;5.624;2023-12-07T12:09:31;3.40;99.90
25450;DHT22;13371;52.080;5.624;2023-12-07T12:11:59;3.30;99.90
25450;DHT22;13371;52.080;5.624;2023-12-07T12:14:28;3.20;99.90
25450;DHT22;13371;52.080;5.624;2023-12-07T12:16:54;3.00;99.90
25450;DHT22;13371;52.080;5.624;2023-12-07T12:19:22;3.40;99.90
25450;DHT22;13371;52.080;5.624;2023-12-07T12:21:48;3.20;99.90
25450;DHT22;13371;52.080;5.624;2023-12-07T12:24:13;3.10;99.90
25450;DHT22;13371;52.080;5.624;2023-12-07T12:26:41;3.10;99.90
25450;DHT22;13371;52.080;5.624;2023-12-07T12:29:07;3.30;99.90
25450;DHT22;13371;52.080;5.624;2023-12-07T12:31:34;3.30;99.90
25450;DHT22;13371;52.080;5.624;2023-12-07T12:34:05;3.40;99.90
25450;DHT22;13371;52.080;5.624;2023-12-07T12:36:32;3.30;99.90
25450;DHT22;13371;52.080;5.624;2023-12-07T12:38:58;3.30;99.90
25450;DHT22;13371;52.080;5.624;2023-12-07T12:41:23;3.20;99.90
25450;DHT22;13371;52.080;5.624;2023-12-07T12:43:49;3.60;99.90
25450;DHT22;13371;52.080;5.624;2023-12-07T12:46:16;3.50;99.90
25450;DHT22;13371;52.080;5.624;2023-12-07T12:48:59;3.90;99.90
25450;DHT22;13371;52.080;5.624;2023-12-07T12:51:26;4.10;99.90
25450;DHT22;13371;52.080;5.624;2023-12-07T12:53:53;4.10;99.90
25450;DHT22;13371;52.080;5.624;2023-12-07T12:56:20;3.60;99.90
25450;DHT22;13371;52.080;5.624;2023-12-07T12:58:50;3.70;99.90
25450;DHT22;13371;52.080;5.624;2023-12-07T13:01:16;3.70;99.90
25450;DHT22;13371;52.080;5.624;2023-12-07T13:03:44;3.60;99.90
25450;DHT22;13371;52.080;5.624;2023-12-07T13:06:11;3.90;99.90
25450;DHT22;13371;52.080;5.624;2023-12-07T13:08:37;3.70;99.90
25450;DHT22;13371;52.080;5.624;2023-12-07T13:11:03;3.30;99.90
25450;DHT22;13371;52.080;5.624;2023-12-07T13:13:28;3.10;99.90
25450;DHT22;13371;52.080;5.624;2023-12-07T13:15:55;3.10;99.90
25450;DHT22;13371;52.080;5.624;2023-12-07T13:18:20;3.40;99.90
25450;DHT22;13371;52.080;5.624;2023-12-07T13:20:46;3.40;99.90
25450;DHT22;13371;52.080;5.624;2023-12-07T13:23:11;3.70;99.90
25450;DHT22;13371;52.080;5.624;2023-12-07T13:25:37;3.40;99.90
25450;DHT22;13371;52.080;5.624;2023-12-07T13:28:02;3.80;99.90
25450;DHT22;13371;52.080;5.624;2023-12-07T13:30:28;4.00;99.90
25450;DHT22;13371;52.080;5.624;2023-12-07T13:32:55;3.70;99.90
25450;DHT22;13371;52.080;5.624;2023-12-07T13:35:20;3.60;99.90
25450;DHT22;13371;52.080;5.624;2023-12-07T13:37:46;3.00;99.90
25450;DHT22;13371;52.080;5.624;2023-12-07T13:40:13;2.90;99.90
25450;DHT22;13371;52.080;5.624;2023-12-07T13:42:40;2.70;99.90
25450;DHT22;13371;52.080;5.624;2023-12-07T13:45:06;3.00;99.90
25450;DHT22;13371;52.080;5.624;2023-12-07T13:47:34;3.20;99.90
25450;DHT22;13371;52.080;5.624;2023-12-07T13:50:03;2.90;99.90
25450;DHT22;13371;52.080;5.624;2023-12-07T13:52:29;2.70;99.90
25450;DHT22;13371;52.080;5.624;2023-12-07T13:54:55;3.00;99.90
25450;DHT22;13371;52.080;5.624;2023-12-07T13:57:22;3.20;99.90
25450;DHT22;13371;52.080;5.624;2023-12-07T13:59:51;3.30;99.90
25450;DHT22;13371;52.080;5.624;2023-12-07T14:02:17;3.30;99.90
25450;DHT22;13371;52.080;5.624;2023-12-07T14:04:43;3.20;99.90
25450;DHT22;13371;52.080;5.624;2023-12-07T14:07:12;3.00;99.90
25450;DHT22;13371;52.080;5.624;2023-12-07T14:09:43;3.40;99.90
25450;DHT22;13371;52.080;5.624;2023-12-07T14:12:09;3.40;99.90
25450;DHT22;13371;52.080;5.624;2023-12-07T14:14:41;2.90;99.90
25450;DHT22;13371;52.080;5.624;2023-12-07T14:17:07;3.10;99.90
25450;DHT22;13371;52.080;5.624;2023-12-07T14:19:32;3.10;99.90
25450;DHT22;13371;52.080;5.624;2023-12-07T14:21:58;3.30;99.90
25450;DHT22;13371;52.080;5.624;2023-12-07T14:24:25;3.60;99.90
25450;DHT22;13371;52.080;5.624;2023-12-07T14:26:50;3.60;99.90
25450;DHT22;13371;52.080;5.624;2023-12-07T14:29:16;3.70;99.90
25450;DHT22;13371;52.080;5.624;2023-12-07T14:31:45;3.00;99.90
25450;DHT22;13371;52.080;5.624;2023-12-07T14:34:11;3.00;99.90
25450;DHT22;13371;52.080;5.624;2023-12-07T14:36:36;3.40;99.90
25450;DHT22;13371;52.080;5.624;2023-12-07T14:39:04;3.10;99.90
25450;DHT22;13371;52.080;5.624;2023-12-07T14:41:33;3.20;99.90
25450;DHT22;13371;52.080;5.624;2023-12-07T14:43:58;3.00;99.90
25450;DHT22;13371;52.080;5.624;2023-12-07T14:46:24;3.10;99.90
25450;DHT22;13371;52.080;5.624;2023-12-07T14:48:50;3.00;99.90
25450;DHT22;13371;52.080;5.624;2023-12-07T14:51:18;2.80;99.90
25450;DHT22;13371;52.080;5.624;2023-12-07T14:53:46;2.90;99.90
25450;DHT22;13371;52.080;5.624;2023-12-07T14:56:12;3.00;99.90
25450;DHT22;13371;52.080;5.624;2023-12-07T14:58:37;2.90;99.90
25450;DHT22;13371;52.080;5.624;2023-12-07T15:01:08;3.50;99.90
25450;DHT22;13371;52.080;5.624;2023-12-07T15:03:34;3.30;99.90
25450;DHT22;13371;52.080;5.624;2023-12-07T15:06:00;3.60;99.90
25450;DHT22;13371;52.080;5.624;2023-12-07T15:08:26;3.50;99.90
25450;DHT22;13371;52.080;5.624;2023-12-07T15:10:52;3.40;99.90
25450;DHT22;13371;52.080;5.624;2023-12-07T15:13:18;3.60;99.90
25450;DHT22;13371;52.080;5.624;2023-12-07T15:15:44;3.50;99.90
25450;DHT22;13371;52.080;5.624;2023-12-07T15:18:10;3.10;99.90
25450;DHT22;13371;52.080;5.624;2023-12-07T15:20:36;3.20;99.90
25450;DHT22;13371;52.080;5.624;2023-12-07T15:23:02;3.20;99.90
25450;DHT22;13371;52.080;5.624;2023-12-07T15:25:28;2.80;99.90
25450;DHT22;13371;52.080;5.624;2023-12-07T15:27:54;3.00;99.90
25450;DHT22;13371;52.080;5.624;2023-12-07T15:30:20;2.80;99.90
25450;DHT22;13371;52.080;5.624;2023-12-07T15:32:49;3.10;99.90
25450;DHT22;13371;52.080;5.624;2023-12-07T15:35:15;3.70;99.90
25450;DHT22;13371;52.080;5.624;2023-12-07T15:37:41;3.80;99.90
25450;DHT22;13371;52.080;5.624;2023-12-07T15:40:07;3.90;99.90
25450;DHT22;13371;52.080;5.624;2023-12-07T15:42:36;3.30;99.90
25450;DHT22;13371;52.080;5.624;2023-12-07T15:45:03;3.10;99.90